sensor_id;sensor_type;location;lat;lon;timestamp;P1;durP1;ratioP1;P2;durP2;ratioP2
75216;SDS011;63800;51.972;5.682;2023-04-15T00:01:07;6.45;;;4.43;;
75216;SDS011;63800;51.972;5.682;2023-04-15T00:03:32;5.60;;;4.53;;
75216;SDS011;63800;51.972;5.682;2023-04-15T00:05:58;7.05;;;5.13;;
75216;SDS011;63800;51.972;5.682;2023-04-15T00:08:24;8.52;;;5.28;;
75216;SDS011;63800;51.972;5.682;2023-04-15T00:10:49;6.80;;;5.15;;
75216;SDS011;63800;51.972;5.682;2023-04-15T00:13:14;7.40;;;4.50;;
75216;SDS011;63800;51.972;5.682;2023-04-15T00:15:40;7.55;;;4.90;;
75216;SDS011;63800;51.972;5.682;2023-04-15T00:18:06;7.60;;;5.05;;
75216;SDS011;63800;51.972;5.682;2023-04-15T00:20:32;6.07;;;4.72;;
75216;SDS011;63800;51.972;5.682;2023-04-15T00:22:58;7.13;;;4.68;;
75216;SDS011;63800;51.972;5.682;2023-04-15T00:25:24;5.40;;;4.45;;
75216;SDS011;63800;51.972;5.682;2023-04-15T00:27:50;7.88;;;5.00;;
75216;SDS011;63800;51.972;5.682;2023-04-15T00:30:15;5.38;;;4.53;;
75216;SDS011;63800;51.972;5.682;2023-04-15T00:32:41;5.78;;;4.18;;
75216;SDS011;63800;51.972;5.682;2023-04-15T00:35:06;6.68;;;3.97;;
75216;SDS011;63800;51.972;5.682;2023-04-15T00:37:32;8.63;;;4.82;;
75216;SDS011;63800;51.972;5.682;2023-04-15T00:39:59;6.72;;;4.63;;
75216;SDS011;63800;51.972;5.682;2023-04-15T00:42:25;7.80;;;4.32;;
75216;SDS011;63800;51.972;5.682;2023-04-15T00:44:51;7.15;;;4.72;;
75216;SDS011;63800;51.972;5.682;2023-04-15T00:47:17;6.18;;;4.63;;
75216;SDS011;63800;51.972;5.682;2023-04-15T00:49:43;7.75;;;4.60;;
75216;SDS011;63800;51.972;5.682;2023-04-15T00:52:08;5.88;;;4.53;;
75216;SDS011;63800;51.972;5.682;2023-04-15T00:54:34;8.65;;;4.68;;
75216;SDS011;63800;51.972;5.682;2023-04-15T00:56:59;9.38;;;4.68;;
75216;SDS011;63800;51.972;5.682;2023-04-15T00:59:26;10.23;;;4.97;;
75216;SDS011;63800;51.972;5.682;2023-04-15T01:01:52;8.18;;;4.80;;
75216;SDS011;63800;51.972;5.682;2023-04-15T01:04:17;5.78;;;4.20;;
75216;SDS011;63800;51.972;5.682;2023-04-15T01:06:43;5.80;;;4.53;;
75216;SDS011;63800;51.972;5.682;2023-04-15T01:09:08;7.85;;;4.53;;
75216;SDS011;63800;51.972;5.682;2023-04-15T01:11:35;6.80;;;4.70;;
75216;SDS011;63800;51.972;5.682;2023-04-15T01:14:00;10.07;;;5.40;;
75216;SDS011;63800;51.972;5.682;2023-04-15T01:16:27;6.57;;;4.70;;
75216;SDS011;63800;51.972;5.682;2023-04-15T01:18:52;8.32;;;4.88;;
75216;SDS011;63800;51.972;5.682;2023-04-15T01:21:18;7.20;;;4.28;;
75216;SDS011;63800;51.972;5.682;2023-04-15T01:23:45;6.18;;;4.10;;
75216;SDS011;63800;51.972;5.682;2023-04-15T01:26:12;7.95;;;4.68;;
75216;SDS011;63800;51.972;5.682;2023-04-15T01:28:38;7.82;;;5.10;;
75216;SDS011;63800;51.972;5.682;2023-04-15T01:31:07;6.90;;;4.60;;
75216;SDS011;63800;51.972;5.682;2023-04-15T01:33:37;6.82;;;4.93;;
75216;SDS011;63800;51.972;5.682;2023-04-15T01:36:07;6.30;;;4.65;;
75216;SDS011;63800;51.972;5.682;2023-04-15T01:38:34;8.35;;;5.60;;
75216;SDS011;63800;51.972;5.682;2023-04-15T01:41:00;8.32;;;4.60;;
75216;SDS011;63800;51.972;5.682;2023-04-15T01:43:26;7.22;;;5.80;;
75216;SDS011;63800;51.972;5.682;2023-04-15T01:45:52;9.60;;;5.10;;
75216;SDS011;63800;51.972;5.682;2023-04-15T01:48:17;6.93;;;5.07;;
75216;SDS011;63800;51.972;5.682;2023-04-15T01:50:43;8.18;;;5.55;;
75216;SDS011;63800;51.972;5.682;2023-04-15T01:53:09;7.63;;;4.68;;
75216;SDS011;63800;51.972;5.682;2023-04-15T01:55:34;7.18;;;5.03;;
75216;SDS011;63800;51.972;5.682;2023-04-15T01:58:01;7.10;;;4.97;;
75216;SDS011;63800;51.972;5.682;2023-04-15T02:00:26;5.85;;;5.15;;
75216;SDS011;63800;51.972;5.682;2023-04-15T02:02:52;10.70;;;5.63;;
75216;SDS011;63800;51.972;5.682;2023-04-15T02:05:17;7.18;;;4.93;;
75216;SDS011;63800;51.972;5.682;2023-04-15T02:07:43;8.63;;;5.10;;
75216;SDS011;63800;51.972;5.682;2023-04-15T02:10:09;8.63;;;5.30;;
75216;SDS011;63800;51.972;5.682;2023-04-15T02:12:37;10.07;;;5.55;;
75216;SDS011;63800;51.972;5.682;2023-04-15T02:15:02;7.03;;;5.28;;
75216;SDS011;63800;51.972;5.682;2023-04-15T02:17:28;6.95;;;5.20;;
75216;SDS011;63800;51.972;5.682;2023-04-15T02:19:54;7.95;;;5.20;;
75216;SDS011;63800;51.972;5.682;2023-04-15T02:22:21;6.97;;;4.65;;
75216;SDS011;63800;51.972;5.682;2023-04-15T02:24:46;8.43;;;5.07;;
75216;SDS011;63800;51.972;5.682;2023-04-15T02:27:15;10.65;;;5.47;;
75216;SDS011;63800;51.972;5.682;2023-04-15T02:29:42;11.23;;;5.30;;
75216;SDS011;63800;51.972;5.682;2023-04-15T02:32:11;7.28;;;5.15;;
75216;SDS011;63800;51.972;5.682;2023-04-15T02:34:40;7.53;;;5.30;;
75216;SDS011;63800;51.972;5.682;2023-04-15T02:37:07;6.35;;;5.00;;
75216;SDS011;63800;51.972;5.682;2023-04-15T02:39:33;6.43;;;5.20;;
75216;SDS011;63800;51.972;5.682;2023-04-15T02:41:59;6.70;;;5.03;;
75216;SDS011;63800;51.972;5.682;2023-04-15T02:44:25;8.20;;;5.35;;
75216;SDS011;63800;51.972;5.682;2023-04-15T02:46:51;8.00;;;5.13;;
75216;SDS011;63800;51.972;5.682;2023-04-15T02:49:18;7.90;;;4.97;;
75216;SDS011;63800;51.972;5.682;2023-04-15T02:51:44;10.25;;;5.55;;
75216;SDS011;63800;51.972;5.682;2023-04-15T02:54:13;9.40;;;5.07;;
75216;SDS011;63800;51.972;5.682;2023-04-15T02:56:48;7.75;;;5.50;;
75216;SDS011;63800;51.972;5.682;2023-04-15T02:59:14;6.97;;;4.55;;
75216;SDS011;63800;51.972;5.682;2023-04-15T03:01:40;7.00;;;5.40;;
75216;SDS011;63800;51.972;5.682;2023-04-15T03:04:06;10.27;;;5.28;;
75216;SDS011;63800;51.972;5.682;2023-04-15T03:06:32;9.02;;;5.32;;
75216;SDS011;63800;51.972;5.682;2023-04-15T03:08:58;10.27;;;5.72;;
75216;SDS011;63800;51.972;5.682;2023-04-15T03:11:24;8.48;;;5.53;;
75216;SDS011;63800;51.972;5.682;2023-04-15T03:13:51;8.57;;;5.47;;
75216;SDS011;63800;51.972;5.682;2023-04-15T03:16:16;8.73;;;5.45;;
75216;SDS011;63800;51.972;5.682;2023-04-15T03:18:42;8.52;;;6.03;;
75216;SDS011;63800;51.972;5.682;2023-04-15T03:21:07;8.70;;;5.25;;
75216;SDS011;63800;51.972;5.682;2023-04-15T03:23:33;8.80;;;5.55;;
75216;SDS011;63800;51.972;5.682;2023-04-15T03:26:02;9.80;;;6.00;;
75216;SDS011;63800;51.972;5.682;2023-04-15T03:28:28;8.55;;;5.13;;
75216;SDS011;63800;51.972;5.682;2023-04-15T03:30:54;8.57;;;5.72;;
75216;SDS011;63800;51.972;5.682;2023-04-15T03:33:20;10.73;;;6.25;;
75216;SDS011;63800;51.972;5.682;2023-04-15T03:35:45;9.77;;;5.72;;
75216;SDS011;63800;51.972;5.682;2023-04-15T03:38:11;8.82;;;6.10;;
75216;SDS011;63800;51.972;5.682;2023-04-15T03:40:37;8.18;;;5.90;;
75216;SDS011;63800;51.972;5.682;2023-04-15T03:43:05;7.43;;;5.57;;
75216;SDS011;63800;51.972;5.682;2023-04-15T03:45:30;9.10;;;6.05;;
75216;SDS011;63800;51.972;5.682;2023-04-15T03:47:56;10.57;;;6.40;;
75216;SDS011;63800;51.972;5.682;2023-04-15T03:50:21;10.00;;;6.32;;
75216;SDS011;63800;51.972;5.682;2023-04-15T03:52:47;10.02;;;6.40;;
75216;SDS011;63800;51.972;5.682;2023-04-15T03:55:12;10.32;;;6.10;;
75216;SDS011;63800;51.972;5.682;2023-04-15T03:57:38;9.60;;;6.22;;
75216;SDS011;63800;51.972;5.682;2023-04-15T04:00:04;11.38;;;6.28;;
75216;SDS011;63800;51.972;5.682;2023-04-15T04:02:31;11.45;;;6.18;;
75216;SDS011;63800;51.972;5.682;2023-04-15T04:04:56;12.93;;;6.65;;
75216;SDS011;63800;51.972;5.682;2023-04-15T04:07:22;10.65;;;6.68;;
75216;SDS011;63800;51.972;5.682;2023-04-15T04:09:48;11.55;;;6.88;;
75216;SDS011;63800;51.972;5.682;2023-04-15T04:12:14;11.63;;;6.60;;
75216;SDS011;63800;51.972;5.682;2023-04-15T04:14:40;10.48;;;6.65;;
75216;SDS011;63800;51.972;5.682;2023-04-15T04:17:05;11.20;;;6.63;;
75216;SDS011;63800;51.972;5.682;2023-04-15T04:19:31;12.82;;;6.43;;
75216;SDS011;63800;51.972;5.682;2023-04-15T04:21:56;10.32;;;6.57;;
75216;SDS011;63800;51.972;5.682;2023-04-15T04:24:21;13.45;;;6.68;;
75216;SDS011;63800;51.972;5.682;2023-04-15T04:26:47;10.80;;;6.82;;
75216;SDS011;63800;51.972;5.682;2023-04-15T04:29:12;12.45;;;7.28;;
75216;SDS011;63800;51.972;5.682;2023-04-15T04:31:38;10.93;;;7.63;;
75216;SDS011;63800;51.972;5.682;2023-04-15T04:34:03;9.38;;;7.10;;
75216;SDS011;63800;51.972;5.682;2023-04-15T04:36:29;12.80;;;7.38;;
75216;SDS011;63800;51.972;5.682;2023-04-15T04:38:54;11.43;;;7.32;;
75216;SDS011;63800;51.972;5.682;2023-04-15T04:41:20;8.55;;;6.53;;
75216;SDS011;63800;51.972;5.682;2023-04-15T04:43:45;11.07;;;6.97;;
75216;SDS011;63800;51.972;5.682;2023-04-15T04:46:11;12.15;;;7.47;;
75216;SDS011;63800;51.972;5.682;2023-04-15T04:48:36;10.60;;;7.65;;
75216;SDS011;63800;51.972;5.682;2023-04-15T04:51:02;13.73;;;7.72;;
75216;SDS011;63800;51.972;5.682;2023-04-15T04:53:27;10.93;;;7.18;;
75216;SDS011;63800;51.972;5.682;2023-04-15T04:55:53;9.95;;;7.40;;
75216;SDS011;63800;51.972;5.682;2023-04-15T04:58:18;12.88;;;7.40;;
75216;SDS011;63800;51.972;5.682;2023-04-15T05:00:44;12.10;;;7.80;;
75216;SDS011;63800;51.972;5.682;2023-04-15T05:03:10;13.70;;;7.40;;
75216;SDS011;63800;51.972;5.682;2023-04-15T05:05:35;13.35;;;7.70;;
75216;SDS011;63800;51.972;5.682;2023-04-15T05:08:03;12.07;;;7.78;;
75216;SDS011;63800;51.972;5.682;2023-04-15T05:10:29;11.68;;;7.35;;
75216;SDS011;63800;51.972;5.682;2023-04-15T05:12:55;12.60;;;7.32;;
75216;SDS011;63800;51.972;5.682;2023-04-15T05:15:21;12.77;;;7.82;;
75216;SDS011;63800;51.972;5.682;2023-04-15T05:17:46;13.30;;;7.75;;
75216;SDS011;63800;51.972;5.682;2023-04-15T05:20:12;11.15;;;7.68;;
75216;SDS011;63800;51.972;5.682;2023-04-15T05:22:38;13.25;;;7.68;;
75216;SDS011;63800;51.972;5.682;2023-04-15T05:25:03;13.07;;;7.85;;
75216;SDS011;63800;51.972;5.682;2023-04-15T05:27:29;11.25;;;7.65;;
75216;SDS011;63800;51.972;5.682;2023-04-15T05:29:55;14.68;;;7.75;;
75216;SDS011;63800;51.972;5.682;2023-04-15T05:32:20;11.82;;;7.45;;
75216;SDS011;63800;51.972;5.682;2023-04-15T05:34:46;11.18;;;7.28;;
75216;SDS011;63800;51.972;5.682;2023-04-15T05:37:11;11.60;;;7.63;;
75216;SDS011;63800;51.972;5.682;2023-04-15T05:39:37;11.15;;;8.32;;
75216;SDS011;63800;51.972;5.682;2023-04-15T05:42:02;14.57;;;7.88;;
75216;SDS011;63800;51.972;5.682;2023-04-15T05:44:29;12.32;;;7.90;;
75216;SDS011;63800;51.972;5.682;2023-04-15T05:46:55;12.93;;;7.82;;
75216;SDS011;63800;51.972;5.682;2023-04-15T05:49:20;11.80;;;7.45;;
75216;SDS011;63800;51.972;5.682;2023-04-15T05:51:46;12.63;;;7.80;;
75216;SDS011;63800;51.972;5.682;2023-04-15T05:54:12;11.55;;;7.30;;
75216;SDS011;63800;51.972;5.682;2023-04-15T05:56:38;11.25;;;7.47;;
75216;SDS011;63800;51.972;5.682;2023-04-15T05:59:03;13.55;;;8.10;;
75216;SDS011;63800;51.972;5.682;2023-04-15T06:01:28;13.98;;;7.93;;
75216;SDS011;63800;51.972;5.682;2023-04-15T06:03:54;11.13;;;7.25;;
75216;SDS011;63800;51.972;5.682;2023-04-15T06:06:20;14.02;;;7.85;;
75216;SDS011;63800;51.972;5.682;2023-04-15T06:08:45;11.93;;;8.00;;
75216;SDS011;63800;51.972;5.682;2023-04-15T06:11:11;14.57;;;8.35;;
75216;SDS011;63800;51.972;5.682;2023-04-15T06:13:36;14.25;;;8.10;;
75216;SDS011;63800;51.972;5.682;2023-04-15T06:16:02;13.27;;;7.78;;
75216;SDS011;63800;51.972;5.682;2023-04-15T06:18:28;11.63;;;7.50;;
75216;SDS011;63800;51.972;5.682;2023-04-15T06:20:53;11.77;;;7.88;;
75216;SDS011;63800;51.972;5.682;2023-04-15T06:23:19;13.57;;;7.97;;
75216;SDS011;63800;51.972;5.682;2023-04-15T06:25:45;12.40;;;7.05;;
75216;SDS011;63800;51.972;5.682;2023-04-15T06:28:10;14.38;;;7.93;;
75216;SDS011;63800;51.972;5.682;2023-04-15T06:30:36;11.48;;;7.32;;
75216;SDS011;63800;51.972;5.682;2023-04-15T06:33:02;13.15;;;7.82;;
75216;SDS011;63800;51.972;5.682;2023-04-15T06:35:29;12.00;;;7.78;;
75216;SDS011;63800;51.972;5.682;2023-04-15T06:37:55;13.35;;;8.15;;
75216;SDS011;63800;51.972;5.682;2023-04-15T06:40:20;13.05;;;7.97;;
75216;SDS011;63800;51.972;5.682;2023-04-15T06:42:46;15.18;;;8.75;;
75216;SDS011;63800;51.972;5.682;2023-04-15T06:45:11;13.02;;;7.68;;
75216;SDS011;63800;51.972;5.682;2023-04-15T06:47:37;13.93;;;8.32;;
75216;SDS011;63800;51.972;5.682;2023-04-15T06:50:02;12.18;;;7.38;;
75216;SDS011;63800;51.972;5.682;2023-04-15T06:52:28;12.60;;;7.90;;
75216;SDS011;63800;51.972;5.682;2023-04-15T06:54:54;13.60;;;8.75;;
75216;SDS011;63800;51.972;5.682;2023-04-15T06:57:19;12.55;;;7.53;;
75216;SDS011;63800;51.972;5.682;2023-04-15T06:59:45;17.73;;;7.88;;
75216;SDS011;63800;51.972;5.682;2023-04-15T07:02:11;12.13;;;7.35;;
75216;SDS011;63800;51.972;5.682;2023-04-15T07:04:38;11.55;;;7.20;;
75216;SDS011;63800;51.972;5.682;2023-04-15T07:07:04;13.55;;;7.72;;
75216;SDS011;63800;51.972;5.682;2023-04-15T07:09:30;13.50;;;7.72;;
75216;SDS011;63800;51.972;5.682;2023-04-15T07:11:56;12.48;;;7.57;;
75216;SDS011;63800;51.972;5.682;2023-04-15T07:14:22;12.93;;;7.68;;
75216;SDS011;63800;51.972;5.682;2023-04-15T07:16:47;14.07;;;8.50;;
75216;SDS011;63800;51.972;5.682;2023-04-15T07:19:13;12.20;;;7.53;;
75216;SDS011;63800;51.972;5.682;2023-04-15T07:21:38;12.02;;;7.35;;
75216;SDS011;63800;51.972;5.682;2023-04-15T07:24:04;12.45;;;7.20;;
75216;SDS011;63800;51.972;5.682;2023-04-15T07:26:29;10.25;;;7.13;;
75216;SDS011;63800;51.972;5.682;2023-04-15T07:28:55;9.98;;;5.82;;
75216;SDS011;63800;51.972;5.682;2023-04-15T07:31:20;10.85;;;6.45;;
75216;SDS011;63800;51.972;5.682;2023-04-15T07:33:46;9.18;;;5.65;;
75216;SDS011;63800;51.972;5.682;2023-04-15T07:36:11;8.95;;;5.45;;
75216;SDS011;63800;51.972;5.682;2023-04-15T07:38:37;7.55;;;4.97;;
75216;SDS011;63800;51.972;5.682;2023-04-15T07:41:03;6.28;;;4.63;;
75216;SDS011;63800;51.972;5.682;2023-04-15T07:43:29;8.07;;;4.88;;
75216;SDS011;63800;51.972;5.682;2023-04-15T07:45:54;7.50;;;5.07;;
75216;SDS011;63800;51.972;5.682;2023-04-15T07:48:20;6.07;;;4.25;;
75216;SDS011;63800;51.972;5.682;2023-04-15T07:50:45;6.78;;;4.18;;
75216;SDS011;63800;51.972;5.682;2023-04-15T07:53:12;6.35;;;4.28;;
75216;SDS011;63800;51.972;5.682;2023-04-15T07:55:37;8.68;;;4.72;;
75216;SDS011;63800;51.972;5.682;2023-04-15T07:58:03;7.68;;;4.68;;
75216;SDS011;63800;51.972;5.682;2023-04-15T08:00:28;6.57;;;4.90;;
75216;SDS011;63800;51.972;5.682;2023-04-15T08:02:55;8.23;;;5.30;;
75216;SDS011;63800;51.972;5.682;2023-04-15T08:05:21;9.27;;;5.07;;
75216;SDS011;63800;51.972;5.682;2023-04-15T08:07:46;8.35;;;5.07;;
75216;SDS011;63800;51.972;5.682;2023-04-15T08:10:13;7.82;;;4.60;;
75216;SDS011;63800;51.972;5.682;2023-04-15T08:12:38;7.88;;;4.90;;
75216;SDS011;63800;51.972;5.682;2023-04-15T08:15:04;7.68;;;5.25;;
75216;SDS011;63800;51.972;5.682;2023-04-15T08:17:32;18.63;;;5.28;;
75216;SDS011;63800;51.972;5.682;2023-04-15T08:19:57;8.18;;;5.05;;
75216;SDS011;63800;51.972;5.682;2023-04-15T08:22:23;8.20;;;4.82;;
75216;SDS011;63800;51.972;5.682;2023-04-15T08:24:48;9.13;;;5.00;;
75216;SDS011;63800;51.972;5.682;2023-04-15T08:27:13;9.38;;;5.07;;
75216;SDS011;63800;51.972;5.682;2023-04-15T08:29:39;7.25;;;4.95;;
75216;SDS011;63800;51.972;5.682;2023-04-15T08:32:04;8.02;;;5.28;;
75216;SDS011;63800;51.972;5.682;2023-04-15T08:34:30;8.98;;;5.20;;
75216;SDS011;63800;51.972;5.682;2023-04-15T08:36:55;9.05;;;5.00;;
75216;SDS011;63800;51.972;5.682;2023-04-15T08:39:21;7.32;;;5.07;;
75216;SDS011;63800;51.972;5.682;2023-04-15T08:42:10;7.85;;;5.35;;
75216;SDS011;63800;51.972;5.682;2023-04-15T08:44:36;8.73;;;5.13;;
75216;SDS011;63800;51.972;5.682;2023-04-15T08:47:06;7.13;;;5.10;;
75216;SDS011;63800;51.972;5.682;2023-04-15T08:49:33;7.10;;;4.70;;
75216;SDS011;63800;51.972;5.682;2023-04-15T08:52:03;7.47;;;4.47;;
75216;SDS011;63800;51.972;5.682;2023-04-15T08:54:29;10.05;;;4.30;;
75216;SDS011;63800;51.972;5.682;2023-04-15T08:56:56;6.47;;;4.50;;
75216;SDS011;63800;51.972;5.682;2023-04-15T08:59:22;6.10;;;3.53;;
75216;SDS011;63800;51.972;5.682;2023-04-15T09:01:48;5.60;;;3.50;;
75216;SDS011;63800;51.972;5.682;2023-04-15T09:04:15;5.05;;;3.72;;
75216;SDS011;63800;51.972;5.682;2023-04-15T09:06:41;5.15;;;3.58;;
75216;SDS011;63800;51.972;5.682;2023-04-15T09:09:06;6.85;;;3.53;;
75216;SDS011;63800;51.972;5.682;2023-04-15T09:11:32;4.78;;;3.50;;
75216;SDS011;63800;51.972;5.682;2023-04-15T09:13:58;4.00;;;3.35;;
75216;SDS011;63800;51.972;5.682;2023-04-15T09:16:23;9.05;;;3.03;;
75216;SDS011;63800;51.972;5.682;2023-04-15T09:18:49;4.00;;;2.88;;
75216;SDS011;63800;51.972;5.682;2023-04-15T09:21:15;4.13;;;2.70;;
75216;SDS011;63800;51.972;5.682;2023-04-15T09:23:55;3.67;;;2.75;;
75216;SDS011;63800;51.972;5.682;2023-04-15T09:26:34;4.28;;;2.63;;
75216;SDS011;63800;51.972;5.682;2023-04-15T09:29:10;4.20;;;3.17;;
75216;SDS011;63800;51.972;5.682;2023-04-15T09:31:39;3.75;;;2.88;;
75216;SDS011;63800;51.972;5.682;2023-04-15T09:34:05;5.68;;;2.72;;
75216;SDS011;63800;51.972;5.682;2023-04-15T09:36:40;4.00;;;2.28;;
75216;SDS011;63800;51.972;5.682;2023-04-15T09:39:17;2.28;;;1.95;;
75216;SDS011;63800;51.972;5.682;2023-04-15T09:41:42;2.50;;;2.00;;
75216;SDS011;63800;51.972;5.682;2023-04-15T09:44:21;4.35;;;1.98;;
75216;SDS011;63800;51.972;5.682;2023-04-15T09:46:47;3.75;;;1.88;;
75216;SDS011;63800;51.972;5.682;2023-04-15T09:49:13;1.83;;;1.58;;
75216;SDS011;63800;51.972;5.682;2023-04-15T09:51:39;2.65;;;1.85;;
75216;SDS011;63800;51.972;5.682;2023-04-15T09:54:05;3.20;;;2.30;;
75216;SDS011;63800;51.972;5.682;2023-04-15T09:56:33;2.28;;;1.80;;
75216;SDS011;63800;51.972;5.682;2023-04-15T09:59:05;2.63;;;1.70;;
75216;SDS011;63800;51.972;5.682;2023-04-15T10:01:31;3.30;;;1.90;;
75216;SDS011;63800;51.972;5.682;2023-04-15T10:03:57;2.15;;;1.85;;
75216;SDS011;63800;51.972;5.682;2023-04-15T10:06:29;13.77;;;2.53;;
75216;SDS011;63800;51.972;5.682;2023-04-15T10:08:58;3.65;;;1.95;;
75216;SDS011;63800;51.972;5.682;2023-04-15T10:11:25;2.58;;;2.35;;
75216;SDS011;63800;51.972;5.682;2023-04-15T10:13:52;2.60;;;2.08;;
75216;SDS011;63800;51.972;5.682;2023-04-15T10:16:19;3.17;;;2.20;;
75216;SDS011;63800;51.972;5.682;2023-04-15T10:18:50;3.45;;;1.98;;
75216;SDS011;63800;51.972;5.682;2023-04-15T10:21:22;3.05;;;2.20;;
75216;SDS011;63800;51.972;5.682;2023-04-15T10:23:49;2.78;;;1.95;;
75216;SDS011;63800;51.972;5.682;2023-04-15T10:26:14;3.13;;;2.03;;
75216;SDS011;63800;51.972;5.682;2023-04-15T10:28:41;2.60;;;2.00;;
75216;SDS011;63800;51.972;5.682;2023-04-15T10:31:08;2.63;;;1.95;;
75216;SDS011;63800;51.972;5.682;2023-04-15T10:33:39;3.92;;;2.20;;
75216;SDS011;63800;51.972;5.682;2023-04-15T10:36:06;3.72;;;2.25;;
75216;SDS011;63800;51.972;5.682;2023-04-15T10:38:42;3.45;;;2.40;;
75216;SDS011;63800;51.972;5.682;2023-04-15T10:46:16;2.75;;;2.47;;
75216;SDS011;63800;51.972;5.682;2023-04-15T10:48:47;2.75;;;2.35;;
75216;SDS011;63800;51.972;5.682;2023-04-15T10:51:35;3.58;;;2.38;;
75216;SDS011;63800;51.972;5.682;2023-04-15T10:54:06;3.95;;;2.60;;
75216;SDS011;63800;51.972;5.682;2023-04-15T10:56:37;4.07;;;3.05;;
75216;SDS011;63800;51.972;5.682;2023-04-15T10:59:06;4.22;;;3.20;;
75216;SDS011;63800;51.972;5.682;2023-04-15T11:04:59;5.25;;;3.22;;
75216;SDS011;63800;51.972;5.682;2023-04-15T11:12:37;4.75;;;3.10;;
75216;SDS011;63800;51.972;5.682;2023-04-15T11:17:58;3.95;;;2.58;;
75216;SDS011;63800;51.972;5.682;2023-04-15T11:20:24;3.30;;;2.60;;
75216;SDS011;63800;51.972;5.682;2023-04-15T11:22:50;2.75;;;2.50;;
75216;SDS011;63800;51.972;5.682;2023-04-15T11:25:35;3.67;;;2.53;;
75216;SDS011;63800;51.972;5.682;2023-04-15T11:28:01;5.07;;;2.85;;
75216;SDS011;63800;51.972;5.682;2023-04-15T11:30:28;3.08;;;2.65;;
75216;SDS011;63800;51.972;5.682;2023-04-15T11:33:03;4.40;;;2.78;;
75216;SDS011;63800;51.972;5.682;2023-04-15T11:35:30;4.38;;;3.05;;
75216;SDS011;63800;51.972;5.682;2023-04-15T11:37:56;4.07;;;2.50;;
75216;SDS011;63800;51.972;5.682;2023-04-15T11:40:23;3.88;;;2.67;;
75216;SDS011;63800;51.972;5.682;2023-04-15T11:43:11;3.50;;;2.53;;
75216;SDS011;63800;51.972;5.682;2023-04-15T11:45:37;4.40;;;2.75;;
75216;SDS011;63800;51.972;5.682;2023-04-15T11:48:24;4.03;;;2.42;;
75216;SDS011;63800;51.972;5.682;2023-04-15T11:50:52;3.25;;;2.13;;
75216;SDS011;63800;51.972;5.682;2023-04-15T11:53:19;2.92;;;2.45;;
75216;SDS011;63800;51.972;5.682;2023-04-15T11:58:16;3.00;;;2.10;;
75216;SDS011;63800;51.972;5.682;2023-04-15T12:00:46;4.78;;;2.00;;
75216;SDS011;63800;51.972;5.682;2023-04-15T12:11:13;2.20;;;1.88;;
75216;SDS011;63800;51.972;5.682;2023-04-15T12:13:43;3.05;;;2.30;;
75216;SDS011;63800;51.972;5.682;2023-04-15T12:16:10;3.65;;;2.30;;
75216;SDS011;63800;51.972;5.682;2023-04-15T12:18:38;4.72;;;2.20;;
75216;SDS011;63800;51.972;5.682;2023-04-15T12:21:08;1.90;;;1.70;;
75216;SDS011;63800;51.972;5.682;2023-04-15T12:23:38;5.95;;;2.33;;
75216;SDS011;63800;51.972;5.682;2023-04-15T12:26:11;4.03;;;2.50;;
75216;SDS011;63800;51.972;5.682;2023-04-15T12:28:39;3.40;;;1.80;;
75216;SDS011;63800;51.972;5.682;2023-04-15T12:31:06;2.67;;;2.17;;
75216;SDS011;63800;51.972;5.682;2023-04-15T12:33:33;4.78;;;2.75;;
75216;SDS011;63800;51.972;5.682;2023-04-15T12:35:59;4.15;;;2.35;;
75216;SDS011;63800;51.972;5.682;2023-04-15T12:38:24;3.30;;;2.50;;
75216;SDS011;63800;51.972;5.682;2023-04-15T12:40:50;3.92;;;2.15;;
75216;SDS011;63800;51.972;5.682;2023-04-15T12:43:15;6.40;;;2.40;;
75216;SDS011;63800;51.972;5.682;2023-04-15T12:45:41;3.17;;;2.17;;
75216;SDS011;63800;51.972;5.682;2023-04-15T12:48:07;2.33;;;2.03;;
75216;SDS011;63800;51.972;5.682;2023-04-15T12:50:33;2.53;;;1.60;;
75216;SDS011;63800;51.972;5.682;2023-04-15T12:52:59;2.25;;;1.90;;
75216;SDS011;63800;51.972;5.682;2023-04-15T12:55:24;2.58;;;2.10;;
75216;SDS011;63800;51.972;5.682;2023-04-15T12:57:50;3.15;;;2.10;;
75216;SDS011;63800;51.972;5.682;2023-04-15T13:00:16;2.20;;;1.88;;
75216;SDS011;63800;51.972;5.682;2023-04-15T13:02:42;3.65;;;1.63;;
75216;SDS011;63800;51.972;5.682;2023-04-15T13:05:08;1.90;;;1.30;;
75216;SDS011;63800;51.972;5.682;2023-04-15T13:07:34;2.85;;;1.60;;
75216;SDS011;63800;51.972;5.682;2023-04-15T13:09:59;3.38;;;1.77;;
75216;SDS011;63800;51.972;5.682;2023-04-15T13:12:25;2.38;;;1.48;;
75216;SDS011;63800;51.972;5.682;2023-04-15T13:14:51;2.22;;;1.45;;
75216;SDS011;63800;51.972;5.682;2023-04-15T13:17:17;1.55;;;1.38;;
75216;SDS011;63800;51.972;5.682;2023-04-15T13:19:44;3.58;;;1.70;;
75216;SDS011;63800;51.972;5.682;2023-04-15T13:22:10;2.88;;;1.50;;
75216;SDS011;63800;51.972;5.682;2023-04-15T13:24:36;3.05;;;1.58;;
75216;SDS011;63800;51.972;5.682;2023-04-15T13:27:03;1.80;;;1.58;;
75216;SDS011;63800;51.972;5.682;2023-04-15T13:29:28;1.58;;;1.10;;
75216;SDS011;63800;51.972;5.682;2023-04-15T13:31:54;1.95;;;1.20;;
75216;SDS011;63800;51.972;5.682;2023-04-15T13:34:20;1.40;;;1.30;;
75216;SDS011;63800;51.972;5.682;2023-04-15T13:36:46;2.75;;;1.20;;
75216;SDS011;63800;51.972;5.682;2023-04-15T13:39:12;1.83;;;1.40;;
75216;SDS011;63800;51.972;5.682;2023-04-15T13:41:37;2.35;;;1.52;;
75216;SDS011;63800;51.972;5.682;2023-04-15T13:44:02;2.60;;;1.52;;
75216;SDS011;63800;51.972;5.682;2023-04-15T13:46:29;4.80;;;1.63;;
75216;SDS011;63800;51.972;5.682;2023-04-15T13:48:55;1.30;;;1.10;;
75216;SDS011;63800;51.972;5.682;2023-04-15T13:51:20;3.63;;;1.20;;
75216;SDS011;63800;51.972;5.682;2023-04-15T13:53:45;4.72;;;1.40;;
75216;SDS011;63800;51.972;5.682;2023-04-15T13:56:11;3.97;;;1.40;;
75216;SDS011;63800;51.972;5.682;2023-04-15T13:58:37;2.20;;;1.50;;
75216;SDS011;63800;51.972;5.682;2023-04-15T14:01:02;2.25;;;1.00;;
75216;SDS011;63800;51.972;5.682;2023-04-15T14:03:29;2.47;;;1.52;;
75216;SDS011;63800;51.972;5.682;2023-04-15T14:05:54;1.10;;;1.00;;
75216;SDS011;63800;51.972;5.682;2023-04-15T14:08:21;2.88;;;1.20;;
75216;SDS011;63800;51.972;5.682;2023-04-15T14:10:47;1.88;;;1.52;;
75216;SDS011;63800;51.972;5.682;2023-04-15T14:13:13;1.77;;;1.30;;
75216;SDS011;63800;51.972;5.682;2023-04-15T14:15:39;1.50;;;1.40;;
75216;SDS011;63800;51.972;5.682;2023-04-15T14:18:05;5.30;;;1.40;;
75216;SDS011;63800;51.972;5.682;2023-04-15T14:20:31;2.75;;;1.42;;
75216;SDS011;63800;51.972;5.682;2023-04-15T14:22:56;2.28;;;1.38;;
75216;SDS011;63800;51.972;5.682;2023-04-15T14:25:22;4.20;;;1.95;;
75216;SDS011;63800;51.972;5.682;2023-04-15T14:27:47;1.40;;;1.30;;
75216;SDS011;63800;51.972;5.682;2023-04-15T14:30:13;1.67;;;1.15;;
75216;SDS011;63800;51.972;5.682;2023-04-15T14:32:38;2.25;;;1.35;;
75216;SDS011;63800;51.972;5.682;2023-04-15T14:35:04;2.17;;;1.70;;
75216;SDS011;63800;51.972;5.682;2023-04-15T14:37:30;1.75;;;1.33;;
75216;SDS011;63800;51.972;5.682;2023-04-15T14:39:55;2.90;;;1.67;;
75216;SDS011;63800;51.972;5.682;2023-04-15T14:42:21;2.35;;;1.50;;
75216;SDS011;63800;51.972;5.682;2023-04-15T14:44:46;2.30;;;1.48;;
75216;SDS011;63800;51.972;5.682;2023-04-15T14:47:12;2.47;;;1.60;;
75216;SDS011;63800;51.972;5.682;2023-04-15T14:49:37;3.92;;;2.10;;
75216;SDS011;63800;51.972;5.682;2023-04-15T14:52:03;4.38;;;2.00;;
75216;SDS011;63800;51.972;5.682;2023-04-15T14:54:28;5.53;;;2.33;;
75216;SDS011;63800;51.972;5.682;2023-04-15T14:56:54;6.90;;;2.35;;
75216;SDS011;63800;51.972;5.682;2023-04-15T14:59:20;2.45;;;1.83;;
75216;SDS011;63800;51.972;5.682;2023-04-15T15:01:46;4.10;;;2.50;;
75216;SDS011;63800;51.972;5.682;2023-04-15T15:04:11;3.80;;;2.20;;
75216;SDS011;63800;51.972;5.682;2023-04-15T15:06:37;3.55;;;2.45;;